sensor_id;sensor_type;location;lat;lon;timestamp;temperature;humidity
11320;DHT22;5715;48.234;14.320;2023-04-25T00:01:30;6.40;99.90
11320;DHT22;5715;48.234;14.320;2023-04-25T00:04:17;6.40;99.90
11320;DHT22;5715;48.234;14.320;2023-04-25T00:07:05;6.30;99.90
11320;DHT22;5715;48.234;14.320;2023-04-25T00:09:53;6.40;99.90
11320;DHT22;5715;48.234;14.320;2023-04-25T00:12:41;6.30;99.90
11320;DHT22;5715;48.234;14.320;2023-04-25T00:15:29;6.40;99.90
11320;DHT22;5715;48.234;14.320;2023-04-25T00:18:17;6.30;99.90
11320;DHT22;5715;48.234;14.320;2023-04-25T00:21:06;6.30;99.90
11320;DHT22;5715;48.234;14.320;2023-04-25T00:23:54;6.20;99.90
11320;DHT22;5715;48.234;14.320;2023-04-25T00:26:42;6.20;99.90
11320;DHT22;5715;48.234;14.320;2023-04-25T00:29:29;6.10;99.90
11320;DHT22;5715;48.234;14.320;2023-04-25T00:32:17;6.10;99.90
11320;DHT22;5715;48.234;14.320;2023-04-25T00:35:04;6.10;99.90
11320;DHT22;5715;48.234;14.320;2023-04-25T00:37:53;6.10;99.90
11320;DHT22;5715;48.234;14.320;2023-04-25T00:40:42;6.10;99.90
11320;DHT22;5715;48.234;14.320;2023-04-25T00:43:31;6.10;99.90
11320;DHT22;5715;48.234;14.320;2023-04-25T00:46:19;6.10;99.90
11320;DHT22;5715;48.234;14.320;2023-04-25T00:49:07;6.10;99.90
11320;DHT22;5715;48.234;14.320;2023-04-25T00:51:55;6.00;99.90
11320;DHT22;5715;48.234;14.320;2023-04-25T00:54:43;6.00;99.90
11320;DHT22;5715;48.234;14.320;2023-04-25T00:57:31;6.00;99.90
11320;DHT22;5715;48.234;14.320;2023-04-25T01:00:19;6.00;99.90
11320;DHT22;5715;48.234;14.320;2023-04-25T01:03:07;6.00;99.90
11320;DHT22;5715;48.234;14.320;2023-04-25T01:05:55;5.90;99.90
11320;DHT22;5715;48.234;14.320;2023-04-25T01:08:43;5.90;99.90
11320;DHT22;5715;48.234;14.320;2023-04-25T01:11:31;5.80;99.90
11320;DHT22;5715;48.234;14.320;2023-04-25T01:14:19;5.80;99.90
11320;DHT22;5715;48.234;14.320;2023-04-25T01:17:06;5.80;99.90
11320;DHT22;5715;48.234;14.320;2023-04-25T01:19:56;5.70;99.90
11320;DHT22;5715;48.234;14.320;2023-04-25T01:22:43;5.70;99.90
11320;DHT22;5715;48.234;14.320;2023-04-25T01:25:31;5.70;99.90
11320;DHT22;5715;48.234;14.320;2023-04-25T01:28:19;5.70;99.90
11320;DHT22;5715;48.234;14.320;2023-04-25T01:31:07;5.80;99.90
11320;DHT22;5715;48.234;14.320;2023-04-25T01:33:56;5.80;99.90
11320;DHT22;5715;48.234;14.320;2023-04-25T01:36:44;5.80;99.90
11320;DHT22;5715;48.234;14.320;2023-04-25T01:39:32;5.80;99.90
11320;DHT22;5715;48.234;14.320;2023-04-25T01:42:19;5.80;99.90
11320;DHT22;5715;48.234;14.320;2023-04-25T01:45:08;5.90;99.90
11320;DHT22;5715;48.234;14.320;2023-04-25T01:47:57;5.90;99.90
11320;DHT22;5715;48.234;14.320;2023-04-25T01:50:46;5.80;99.90
11320;DHT22;5715;48.234;14.320;2023-04-25T01:53:34;5.80;99.90
11320;DHT22;5715;48.234;14.320;2023-04-25T01:56:21;5.80;99.90
11320;DHT22;5715;48.234;14.320;2023-04-25T01:59:09;5.80;99.90
11320;DHT22;5715;48.234;14.320;2023-04-25T02:01:56;5.80;99.90
11320;DHT22;5715;48.234;14.320;2023-04-25T02:04:44;5.80;99.90
11320;DHT22;5715;48.234;14.320;2023-04-25T02:07:32;5.90;99.90
11320;DHT22;5715;48.234;14.320;2023-04-25T02:10:20;5.90;99.90
11320;DHT22;5715;48.234;14.320;2023-04-25T02:13:07;5.90;99.90
11320;DHT22;5715;48.234;14.320;2023-04-25T02:15:55;6.00;99.90
11320;DHT22;5715;48.234;14.320;2023-04-25T02:18:42;6.00;99.90
11320;DHT22;5715;48.234;14.320;2023-04-25T02:21:32;6.00;99.90
11320;DHT22;5715;48.234;14.320;2023-04-25T02:24:19;6.10;99.90
11320;DHT22;5715;48.234;14.320;2023-04-25T02:27:07;6.10;99.90
11320;DHT22;5715;48.234;14.320;2023-04-25T02:29:55;6.20;99.90
11320;DHT22;5715;48.234;14.320;2023-04-25T02:32:42;6.20;99.90
11320;DHT22;5715;48.234;14.320;2023-04-25T02:35:30;6.20;99.90
11320;DHT22;5715;48.234;14.320;2023-04-25T02:38:18;6.20;99.90
11320;DHT22;5715;48.234;14.320;2023-04-25T02:41:05;6.20;99.90
11320;DHT22;5715;48.234;14.320;2023-04-25T02:43:53;6.10;99.90
11320;DHT22;5715;48.234;14.320;2023-04-25T02:46:40;6.00;99.90
11320;DHT22;5715;48.234;14.320;2023-04-25T02:49:28;6.00;99.90
11320;DHT22;5715;48.234;14.320;2023-04-25T02:52:15;5.90;99.90
11320;DHT22;5715;48.234;14.320;2023-04-25T02:55:03;5.80;99.90
11320;DHT22;5715;48.234;14.320;2023-04-25T02:57:51;5.70;99.90
11320;DHT22;5715;48.234;14.320;2023-04-25T03:00:38;5.70;99.90
11320;DHT22;5715;48.234;14.320;2023-04-25T03:03:26;5.60;99.90
11320;DHT22;5715;48.234;14.320;2023-04-25T03:06:14;5.50;99.90
11320;DHT22;5715;48.234;14.320;2023-04-25T03:09:02;5.40;99.90
11320;DHT22;5715;48.234;14.320;2023-04-25T03:11:50;5.40;99.90
11320;DHT22;5715;48.234;14.320;2023-04-25T03:14:38;5.30;99.90
11320;DHT22;5715;48.234;14.320;2023-04-25T03:17:25;5.30;99.90
11320;DHT22;5715;48.234;14.320;2023-04-25T03:20:13;5.30;99.90
11320;DHT22;5715;48.234;14.320;2023-04-25T03:23:00;5.30;99.90
11320;DHT22;5715;48.234;14.320;2023-04-25T03:25:48;5.20;99.90
11320;DHT22;5715;48.234;14.320;2023-04-25T03:28:35;5.20;99.90
11320;DHT22;5715;48.234;14.320;2023-04-25T03:31:23;5.10;99.90
11320;DHT22;5715;48.234;14.320;2023-04-25T03:34:10;5.10;99.90
11320;DHT22;5715;48.234;14.320;2023-04-25T03:36:58;5.00;99.90
11320;DHT22;5715;48.234;14.320;2023-04-25T03:39:47;5.00;99.90
11320;DHT22;5715;48.234;14.320;2023-04-25T03:42:34;5.00;99.90
11320;DHT22;5715;48.234;14.320;2023-04-25T03:45:22;4.90;99.90
11320;DHT22;5715;48.234;14.320;2023-04-25T03:48:09;4.90;99.90
11320;DHT22;5715;48.234;14.320;2023-04-25T03:50:58;4.90;99.90
11320;DHT22;5715;48.234;14.320;2023-04-25T03:53:46;4.90;99.90
11320;DHT22;5715;48.234;14.320;2023-04-25T03:56:35;4.90;99.90
11320;DHT22;5715;48.234;14.320;2023-04-25T03:59:23;4.90;99.90
11320;DHT22;5715;48.234;14.320;2023-04-25T04:02:12;4.90;99.90
11320;DHT22;5715;48.234;14.320;2023-04-25T04:04:59;4.90;99.90
11320;DHT22;5715;48.234;14.320;2023-04-25T04:07:47;4.90;99.90
11320;DHT22;5715;48.234;14.320;2023-04-25T04:10:35;4.90;99.90
11320;DHT22;5715;48.234;14.320;2023-04-25T04:13:22;4.90;99.90
11320;DHT22;5715;48.234;14.320;2023-04-25T04:16:10;4.90;99.90
11320;DHT22;5715;48.234;14.320;2023-04-25T04:18:58;4.90;99.90
11320;DHT22;5715;48.234;14.320;2023-04-25T04:21:45;5.00;99.90
11320;DHT22;5715;48.234;14.320;2023-04-25T04:24:33;5.10;99.90
11320;DHT22;5715;48.234;14.320;2023-04-25T04:27:21;5.30;99.90
11320;DHT22;5715;48.234;14.320;2023-04-25T04:30:09;5.40;99.90
11320;DHT22;5715;48.234;14.320;2023-04-25T04:32:57;5.60;99.90
11320;DHT22;5715;48.234;14.320;2023-04-25T04:35:45;5.70;99.90
11320;DHT22;5715;48.234;14.320;2023-04-25T04:38:33;5.90;99.90
11320;DHT22;5715;48.234;14.320;2023-04-25T04:41:21;6.10;99.90
11320;DHT22;5715;48.234;14.320;2023-04-25T04:44:09;6.20;99.90
11320;DHT22;5715;48.234;14.320;2023-04-25T04:46:58;6.50;99.90
11320;DHT22;5715;48.234;14.320;2023-04-25T04:49:46;6.90;99.90
11320;DHT22;5715;48.234;14.320;2023-04-25T04:52:33;7.40;99.90
11320;DHT22;5715;48.234;14.320;2023-04-25T04:55:22;7.80;99.90
11320;DHT22;5715;48.234;14.320;2023-04-25T04:58:09;8.20;99.90
11320;DHT22;5715;48.234;14.320;2023-04-25T05:00:56;8.70;99.90
11320;DHT22;5715;48.234;14.320;2023-04-25T05:03:44;9.10;99.90
11320;DHT22;5715;48.234;14.320;2023-04-25T05:06:32;9.20;99.90
11320;DHT22;5715;48.234;14.320;2023-04-25T05:09:19;9.20;99.90
11320;DHT22;5715;48.234;14.320;2023-04-25T05:12:07;9.00;99.90
11320;DHT22;5715;48.234;14.320;2023-04-25T05:14:54;9.00;99.90
11320;DHT22;5715;48.234;14.320;2023-04-25T05:17:42;8.80;99.90
11320;DHT22;5715;48.234;14.320;2023-04-25T05:20:29;8.80;99.90
11320;DHT22;5715;48.234;14.320;2023-04-25T05:23:17;9.20;99.90
11320;DHT22;5715;48.234;14.320;2023-04-25T05:26:04;9.70;99.90
11320;DHT22;5715;48.234;14.320;2023-04-25T05:28:52;10.30;99.90
11320;DHT22;5715;48.234;14.320;2023-04-25T05:31:40;10.60;99.90
11320;DHT22;5715;48.234;14.320;2023-04-25T05:34:27;10.80;99.90
11320;DHT22;5715;48.234;14.320;2023-04-25T05:37:15;11.00;99.90
11320;DHT22;5715;48.234;14.320;2023-04-25T05:40:03;11.50;99.90
11320;DHT22;5715;48.234;14.320;2023-04-25T05:42:53;11.80;99.90
11320;DHT22;5715;48.234;14.320;2023-04-25T05:45:41;11.60;99.90
11320;DHT22;5715;48.234;14.320;2023-04-25T05:48:29;11.40;99.90
11320;DHT22;5715;48.234;14.320;2023-04-25T05:51:17;11.10;99.90
11320;DHT22;5715;48.234;14.320;2023-04-25T05:54:05;10.70;99.90
11320;DHT22;5715;48.234;14.320;2023-04-25T05:56:52;10.30;99.90
11320;DHT22;5715;48.234;14.320;2023-04-25T05:59:40;9.90;99.90
11320;DHT22;5715;48.234;14.320;2023-04-25T06:02:27;9.70;99.90
11320;DHT22;5715;48.234;14.320;2023-04-25T06:05:15;9.60;99.90
11320;DHT22;5715;48.234;14.320;2023-04-25T06:08:03;9.60;99.90
11320;DHT22;5715;48.234;14.320;2023-04-25T06:10:51;9.70;99.90
11320;DHT22;5715;48.234;14.320;2023-04-25T06:13:38;9.90;99.90
11320;DHT22;5715;48.234;14.320;2023-04-25T06:16:25;10.00;99.90
11320;DHT22;5715;48.234;14.320;2023-04-25T06:19:13;10.10;99.90
11320;DHT22;5715;48.234;14.320;2023-04-25T06:22:01;10.10;99.90
11320;DHT22;5715;48.234;14.320;2023-04-25T06:24:49;10.20;99.90
11320;DHT22;5715;48.234;14.320;2023-04-25T06:27:37;10.10;99.90
11320;DHT22;5715;48.234;14.320;2023-04-25T06:30:24;10.20;99.90
11320;DHT22;5715;48.234;14.320;2023-04-25T06:33:12;10.30;99.90
11320;DHT22;5715;48.234;14.320;2023-04-25T06:36:00;10.50;99.90
11320;DHT22;5715;48.234;14.320;2023-04-25T06:38:48;10.60;99.90
11320;DHT22;5715;48.234;14.320;2023-04-25T06:41:35;10.70;99.90
11320;DHT22;5715;48.234;14.320;2023-04-25T06:44:23;10.70;99.90
11320;DHT22;5715;48.234;14.320;2023-04-25T06:47:13;10.80;99.90
11320;DHT22;5715;48.234;14.320;2023-04-25T06:50:01;10.90;99.90
11320;DHT22;5715;48.234;14.320;2023-04-25T06:52:49;11.00;99.90
11320;DHT22;5715;48.234;14.320;2023-04-25T06:55:36;11.00;99.90
11320;DHT22;5715;48.234;14.320;2023-04-25T06:58:24;11.30;99.90
11320;DHT22;5715;48.234;14.320;2023-04-25T07:01:13;11.50;99.90
11320;DHT22;5715;48.234;14.320;2023-04-25T07:04:01;11.70;99.90
11320;DHT22;5715;48.234;14.320;2023-04-25T07:06:49;11.70;99.90
11320;DHT22;5715;48.234;14.320;2023-04-25T07:09:36;11.80;99.90
11320;DHT22;5715;48.234;14.320;2023-04-25T07:12:24;11.70;99.90
11320;DHT22;5715;48.234;14.320;2023-04-25T07:15:13;11.70;99.90
11320;DHT22;5715;48.234;14.320;2023-04-25T07:18:01;11.80;99.90
11320;DHT22;5715;48.234;14.320;2023-04-25T07:20:48;12.00;99.90
11320;DHT22;5715;48.234;14.320;2023-04-25T07:23:36;12.00;99.90
11320;DHT22;5715;48.234;14.320;2023-04-25T07:26:24;12.00;99.90
11320;DHT22;5715;48.234;14.320;2023-04-25T07:29:12;12.00;99.90
11320;DHT22;5715;48.234;14.320;2023-04-25T07:32:00;12.20;99.90
11320;DHT22;5715;48.234;14.320;2023-04-25T07:34:48;12.20;99.90
11320;DHT22;5715;48.234;14.320;2023-04-25T07:37:36;12.20;99.90
11320;DHT22;5715;48.234;14.320;2023-04-25T07:40:23;12.10;99.90
11320;DHT22;5715;48.234;14.320;2023-04-25T07:43:11;12.10;99.90
11320;DHT22;5715;48.234;14.320;2023-04-25T07:46:01;12.20;99.90
11320;DHT22;5715;48.234;14.320;2023-04-25T07:48:50;12.40;99.90
11320;DHT22;5715;48.234;14.320;2023-04-25T07:51:38;12.60;99.90
11320;DHT22;5715;48.234;14.320;2023-04-25T07:54:25;12.70;99.90
11320;DHT22;5715;48.234;14.320;2023-04-25T07:57:13;13.00;99.90
11320;DHT22;5715;48.234;14.320;2023-04-25T08:00:01;13.20;99.90
11320;DHT22;5715;48.234;14.320;2023-04-25T08:02:48;13.20;99.90
11320;DHT22;5715;48.234;14.320;2023-04-25T08:05:38;13.10;99.90
11320;DHT22;5715;48.234;14.320;2023-04-25T08:08:26;13.10;99.90
11320;DHT22;5715;48.234;14.320;2023-04-25T08:11:13;13.00;99.90
11320;DHT22;5715;48.234;14.320;2023-04-25T08:14:00;12.80;99.90
11320;DHT22;5715;48.234;14.320;2023-04-25T08:16:48;12.60;99.90
11320;DHT22;5715;48.234;14.320;2023-04-25T08:19:36;12.60;99.90
11320;DHT22;5715;48.234;14.320;2023-04-25T08:22:24;12.80;99.90
11320;DHT22;5715;48.234;14.320;2023-04-25T08:25:12;13.00;99.90
11320;DHT22;5715;48.234;14.320;2023-04-25T08:27:59;13.20;99.90
11320;DHT22;5715;48.234;14.320;2023-04-25T08:30:49;13.20;99.90
11320;DHT22;5715;48.234;14.320;2023-04-25T08:33:37;13.40;99.90
11320;DHT22;5715;48.234;14.320;2023-04-25T08:36:24;13.60;99.90
11320;DHT22;5715;48.234;14.320;2023-04-25T08:39:25;13.80;99.90
11320;DHT22;5715;48.234;14.320;2023-04-25T08:42:14;13.90;99.90
11320;DHT22;5715;48.234;14.320;2023-04-25T08:45:03;13.90;99.90
11320;DHT22;5715;48.234;14.320;2023-04-25T08:47:54;14.10;99.90
11320;DHT22;5715;48.234;14.320;2023-04-25T08:50:54;14.40;99.90
11320;DHT22;5715;48.234;14.320;2023-04-25T08:53:43;14.60;99.90
11320;DHT22;5715;48.234;14.320;2023-04-25T08:56:33;14.70;99.90
11320;DHT22;5715;48.234;14.320;2023-04-25T08:59:22;14.80;99.90
11320;DHT22;5715;48.234;14.320;2023-04-25T09:02:10;14.60;99.90
11320;DHT22;5715;48.234;14.320;2023-04-25T09:05:02;14.20;99.90
11320;DHT22;5715;48.234;14.320;2023-04-25T09:07:51;13.90;99.90
11320;DHT22;5715;48.234;14.320;2023-04-25T09:10:39;13.80;99.90
11320;DHT22;5715;48.234;14.320;2023-04-25T09:13:27;13.40;99.90
11320;DHT22;5715;48.234;14.320;2023-04-25T09:16:16;12.90;99.90
11320;DHT22;5715;48.234;14.320;2023-04-25T09:19:06;12.80;99.90
11320;DHT22;5715;48.234;14.320;2023-04-25T09:21:58;12.90;99.90
11320;DHT22;5715;48.234;14.320;2023-04-25T09:24:47;13.30;99.90
11320;DHT22;5715;48.234;14.320;2023-04-25T09:27:36;13.70;99.90
11320;DHT22;5715;48.234;14.320;2023-04-25T09:30:35;14.30;99.90
11320;DHT22;5715;48.234;14.320;2023-04-25T09:33:31;14.90;99.90
11320;DHT22;5715;48.234;14.320;2023-04-25T09:36:26;14.90;99.90
11320;DHT22;5715;48.234;14.320;2023-04-25T09:39:15;15.00;99.90
11320;DHT22;5715;48.234;14.320;2023-04-25T09:42:03;15.30;99.90
11320;DHT22;5715;48.234;14.320;2023-04-25T09:44:53;15.50;99.90
11320;DHT22;5715;48.234;14.320;2023-04-25T09:47:42;15.50;99.90
11320;DHT22;5715;48.234;14.320;2023-04-25T09:50:31;15.40;99.90
11320;DHT22;5715;48.234;14.320;2023-04-25T09:53:18;15.20;99.90
11320;DHT22;5715;48.234;14.320;2023-04-25T09:56:08;15.10;99.90
11320;DHT22;5715;48.234;14.320;2023-04-25T09:58:57;14.80;99.90
11320;DHT22;5715;48.234;14.320;2023-04-25T10:01:46;14.50;99.90
11320;DHT22;5715;48.234;14.320;2023-04-25T10:04:35;14.70;99.90
11320;DHT22;5715;48.234;14.320;2023-04-25T10:07:28;15.00;99.90
11320;DHT22;5715;48.234;14.320;2023-04-25T10:10:17;15.30;99.90
11320;DHT22;5715;48.234;14.320;2023-04-25T10:13:07;15.40;99.90
11320;DHT22;5715;48.234;14.320;2023-04-25T10:15:56;15.60;99.90
11320;DHT22;5715;48.234;14.320;2023-04-25T10:18:51;15.70;99.90
11320;DHT22;5715;48.234;14.320;2023-04-25T10:21:52;15.90;99.90
11320;DHT22;5715;48.234;14.320;2023-04-25T10:24:48;16.30;99.90
11320;DHT22;5715;48.234;14.320;2023-04-25T10:27:39;16.50;99.90
11320;DHT22;5715;48.234;14.320;2023-04-25T10:30:26;16.50;99.90
11320;DHT22;5715;48.234;14.320;2023-04-25T10:33:17;16.00;99.90
11320;DHT22;5715;48.234;14.320;2023-04-25T10:36:18;15.60;99.90
11320;DHT22;5715;48.234;14.320;2023-04-25T10:39:08;14.80;99.90
11320;DHT22;5715;48.234;14.320;2023-04-25T10:41:58;14.20;99.90
11320;DHT22;5715;48.234;14.320;2023-04-25T10:45:01;13.10;99.90
11320;DHT22;5715;48.234;14.320;2023-04-25T10:47:52;12.30;99.90
11320;DHT22;5715;48.234;14.320;2023-04-25T10:50:39;12.10;99.90
11320;DHT22;5715;48.234;14.320;2023-04-25T10:53:32;12.00;99.90
11320;DHT22;5715;48.234;14.320;2023-04-25T10:56:27;11.90;99.90
11320;DHT22;5715;48.234;14.320;2023-04-25T10:59:18;11.80;99.90
11320;DHT22;5715;48.234;14.320;2023-04-25T11:02:11;11.70;99.90
11320;DHT22;5715;48.234;14.320;2023-04-25T11:05:00;11.70;99.90
11320;DHT22;5715;48.234;14.320;2023-04-25T11:07:54;11.60;99.90
11320;DHT22;5715;48.234;14.320;2023-04-25T11:10:47;11.60;99.90
11320;DHT22;5715;48.234;14.320;2023-04-25T11:13:37;11.30;99.90
11320;DHT22;5715;48.234;14.320;2023-04-25T11:16:25;10.90;99.90
11320;DHT22;5715;48.234;14.320;2023-04-25T11:19:14;10.50;99.90
11320;DHT22;5715;48.234;14.320;2023-04-25T11:22:03;10.20;99.90
11320;DHT22;5715;48.234;14.320;2023-04-25T11:24:50;10.10;99.90
11320;DHT22;5715;48.234;14.320;2023-04-25T11:30:39;10.00;99.90
11320;DHT22;5715;48.234;14.320;2023-04-25T11:33:35;10.00;99.90
11320;DHT22;5715;48.234;14.320;2023-04-25T11:36:24;10.10;99.90
11320;DHT22;5715;48.234;14.320;2023-04-25T11:39:13;10.20;99.90
11320;DHT22;5715;48.234;14.320;2023-04-25T11:42:04;10.50;99.90
11320;DHT22;5715;48.234;14.320;2023-04-25T11:45:00;10.70;99.90
11320;DHT22;5715;48.234;14.320;2023-04-25T11:47:47;11.00;99.90
11320;DHT22;5715;48.234;14.320;2023-04-25T11:50:39;11.30;99.90
11320;DHT22;5715;48.234;14.320;2023-04-25T11:53:27;11.60;99.90
11320;DHT22;5715;48.234;14.320;2023-04-25T11:56:15;12.00;99.90
11320;DHT22;5715;48.234;14.320;2023-04-25T11:59:04;12.10;99.90
11320;DHT22;5715;48.234;14.320;2023-04-25T12:01:53;12.40;99.90
11320;DHT22;5715;48.234;14.320;2023-04-25T12:04:41;12.60;99.90
11320;DHT22;5715;48.234;14.320;2023-04-25T12:07:30;12.70;99.90
11320;DHT22;5715;48.234;14.320;2023-04-25T12:10:18;12.80;99.90
11320;DHT22;5715;48.234;14.320;2023-04-25T12:13:25;13.00;99.90
11320;DHT22;5715;48.234;14.320;2023-04-25T12:16:15;13.30;99.90
11320;DHT22;5715;48.234;14.320;2023-04-25T12:19:03;13.20;99.90
11320;DHT22;5715;48.234;14.320;2023-04-25T12:21:51;13.40;99.90
11320;DHT22;5715;48.234;14.320;2023-04-25T12:24:45;13.50;99.90
11320;DHT22;5715;48.234;14.320;2023-04-25T12:27:33;13.60;99.90
11320;DHT22;5715;48.234;14.320;2023-04-25T12:30:20;13.70;99.90
11320;DHT22;5715;48.234;14.320;2023-04-25T12:33:08;13.90;99.90
11320;DHT22;5715;48.234;14.320;2023-04-25T12:35:57;14.00;99.90
11320;DHT22;5715;48.234;14.320;2023-04-25T12:38:45;14.20;99.90
11320;DHT22;5715;48.234;14.320;2023-04-25T12:41:33;14.40;99.90
11320;DHT22;5715;48.234;14.320;2023-04-25T12:44:21;14.80;99.90
11320;DHT22;5715;48.234;14.320;2023-04-25T12:47:09;15.30;99.90
11320;DHT22;5715;48.234;14.320;2023-04-25T12:49:57;15.20;99.90
11320;DHT22;5715;48.234;14.320;2023-04-25T12:52:45;14.90;99.90
11320;DHT22;5715;48.234;14.320;2023-04-25T12:55:33;14.20;99.90
11320;DHT22;5715;48.234;14.320;2023-04-25T12:58:20;13.10;99.90
11320;DHT22;5715;48.234;14.320;2023-04-25T13:01:08;11.70;99.90
11320;DHT22;5715;48.234;14.320;2023-04-25T13:03:56;10.20;99.90
11320;DHT22;5715;48.234;14.320;2023-04-25T13:06:44;9.30;99.90
11320;DHT22;5715;48.234;14.320;2023-04-25T13:09:31;8.90;99.90
11320;DHT22;5715;48.234;14.320;2023-04-25T13:12:19;9.00;99.90
11320;DHT22;5715;48.234;14.320;2023-04-25T13:15:07;9.20;99.90
11320;DHT22;5715;48.234;14.320;2023-04-25T13:17:56;9.40;99.90
11320;DHT22;5715;48.234;14.320;2023-04-25T13:20:44;9.50;99.90
11320;DHT22;5715;48.234;14.320;2023-04-25T13:23:31;10.20;99.90
11320;DHT22;5715;48.234;14.320;2023-04-25T13:26:19;10.80;99.90
11320;DHT22;5715;48.234;14.320;2023-04-25T13:29:06;11.30;99.90
11320;DHT22;5715;48.234;14.320;2023-04-25T13:31:54;11.90;99.90
11320;DHT22;5715;48.234;14.320;2023-04-25T13:34:44;12.40;99.90
11320;DHT22;5715;48.234;14.320;2023-04-25T13:37:31;12.90;99.90
11320;DHT22;5715;48.234;14.320;2023-04-25T13:40:20;13.40;99.90
11320;DHT22;5715;48.234;14.320;2023-04-25T13:43:11;13.50;99.90
11320;DHT22;5715;48.234;14.320;2023-04-25T13:45:58;13.60;99.90
11320;DHT22;5715;48.234;14.320;2023-04-25T13:48:46;13.70;99.90
11320;DHT22;5715;48.234;14.320;2023-04-25T13:51:35;13.60;99.90
11320;DHT22;5715;48.234;14.320;2023-04-25T13:54:23;13.30;99.90
11320;DHT22;5715;48.234;14.320;2023-04-25T13:57:10;13.20;99.90
11320;DHT22;5715;48.234;14.320;2023-04-25T13:59:58;13.30;99.90
11320;DHT22;5715;48.234;14.320;2023-04-25T14:02:46;13.40;99.90
11320;DHT22;5715;48.234;14.320;2023-04-25T14:05:37;13.40;99.90
11320;DHT22;5715;48.234;14.320;2023-04-25T14:08:26;13.20;99.90
11320;DHT22;5715;48.234;14.320;2023-04-25T14:11:13;12.90;99.90
11320;DHT22;5715;48.234;14.320;2023-04-25T14:14:01;12.50;99.90
11320;DHT22;5715;48.234;14.320;2023-04-25T14:16:49;12.20;99.90
11320;DHT22;5715;48.234;14.320;2023-04-25T14:19:37;12.10;99.90
11320;DHT22;5715;48.234;14.320;2023-04-25T14:22:30;12.20;99.90
11320;DHT22;5715;48.234;14.320;2023-04-25T14:25:17;12.30;99.90
11320;DHT22;5715;48.234;14.320;2023-04-25T14:28:05;12.50;99.90
11320;DHT22;5715;48.234;14.320;2023-04-25T14:30:53;12.90;99.90
11320;DHT22;5715;48.234;14.320;2023-04-25T14:33:41;13.10;99.90
11320;DHT22;5715;48.234;14.320;2023-04-25T14:36:30;13.20;99.90
11320;DHT22;5715;48.234;14.320;2023-04-25T14:39:19;13.20;99.90
11320;DHT22;5715;48.234;14.320;2023-04-25T14:42:07;13.20;99.90
11320;DHT22;5715;48.234;14.320;2023-04-25T14:44:54;13.40;99.90
11320;DHT22;5715;48.234;14.320;2023-04-25T14:47:42;13.40;99.90
11320;DHT22;5715;48.234;14.320;2023-04-25T14:50:30;13.30;99.90
11320;DHT22;5715;48.234;14.320;2023-04-25T14:53:17;13.30;99.90
11320;DHT22;5715;48.234;14.320;2023-04-25T14:56:05;13.10;99.90
11320;DHT22;5715;48.234;14.320;2023-04-25T14:58:52;13.20;99.90
11320;DHT22;5715;48.234;14.320;2023-04-25T15:01:40;13.20;99.90
11320;DHT22;5715;48.234;14.320;2023-04-25T15:04:28;13.30;99.90
11320;DHT22;5715;48.234;14.320;2023-04-25T15:07:16;13.40;99.90
11320;DHT22;5715;48.234;14.320;2023-04-25T15:10:05;13.30;99.90
11320;DHT22;5715;48.234;14.320;2023-04-25T15:12:58;13.30;99.90
11320;DHT22;5715;48.234;14.320;2023-04-25T15:15:45;13.50;99.90
11320;DHT22;5715;48.234;14.320;2023-04-25T15:18:38;13.70;99.90
11320;DHT22;5715;48.234;14.320;2023-04-25T15:21:25;13.90;99.90
11320;DHT22;5715;48.234;14.320;2023-04-25T15:24:13;14.00;99.90
11320;DHT22;5715;48.234;14.320;2023-04-25T15:27:02;14.10;99.90
11320;DHT22;5715;48.234;14.320;2023-04-25T15:29:51;14.20;99.90
11320;DHT22;5715;48.234;14.320;2023-04-25T15:32:39;14.10;99.90
11320;DHT22;5715;48.234;14.320;2023-04-25T15:35:27;14.00;99.90
11320;DHT22;5715;48.234;14.320;2023-04-25T15:38:15;13.70;99.90
11320;DHT22;5715;48.234;14.320;2023-04-25T15:41:02;13.40;99.90
11320;DHT22;5715;48.234;14.320;2023-04-25T15:43:52;13.10;99.90
11320;DHT22;5715;48.234;14.320;2023-04-25T15:46:41;12.90;99.90
11320;DHT22;5715;48.234;14.320;2023-04-25T15:49:30;12.70;99.90
11320;DHT22;5715;48.234;14.320;2023-04-25T15:52:17;12.60;99.90
11320;DHT22;5715;48.234;14.320;2023-04-25T15:55:08;12.40;99.90
11320;DHT22;5715;48.234;14.320;2023-04-25T15:57:56;12.30;99.90
11320;DHT22;5715;48.234;14.320;2023-04-25T16:00:44;12.30;99.90
11320;DHT22;5715;48.234;14.320;2023-04-25T16:03:35;12.20;99.90
11320;DHT22;5715;48.234;14.320;2023-04-25T16:06:24;12.20;99.90
11320;DHT22;5715;48.234;14.320;2023-04-25T16:09:12;12.10;99.90
11320;DHT22;5715;48.234;14.320;2023-04-25T16:12:00;12.30;99.90
11320;DHT22;5715;48.234;14.320;2023-04-25T16:14:47;12.20;99.90
11320;DHT22;5715;48.234;14.320;2023-04-25T16:17:35;12.00;99.90
11320;DHT22;5715;48.234;14.320;2023-04-25T16:20:23;11.80;99.90
11320;DHT22;5715;48.234;14.320;2023-04-25T16:23:10;11.50;99.90
11320;DHT22;5715;48.234;14.320;2023-04-25T16:25:58;10.10;99.90
11320;DHT22;5715;48.234;14.320;2023-04-25T16:28:45;9.00;99.90
11320;DHT22;5715;48.234;14.320;2023-04-25T16:31:33;8.40;99.90
11320;DHT22;5715;48.234;14.320;2023-04-25T16:34:22;8.10;99.90
11320;DHT22;5715;48.234;14.320;2023-04-25T16:37:10;8.00;99.90
11320;DHT22;5715;48.234;14.320;2023-04-25T16:39:57;7.90;99.90
11320;DHT22;5715;48.234;14.320;2023-04-25T16:42:45;7.90;99.90
11320;DHT22;5715;48.234;14.320;2023-04-25T16:45:32;7.90;99.90
11320;DHT22;5715;48.234;14.320;2023-04-25T16:48:20;7.90;99.90
11320;DHT22;5715;48.234;14.320;2023-04-25T16:51:10;8.00;99.90
11320;DHT22;5715;48.234;14.320;2023-04-25T16:53:59;8.00;99.90
11320;DHT22;5715;48.234;14.320;2023-04-25T16:56:47;8.10;99.90
11320;DHT22;5715;48.234;14.320;2023-04-25T16:59:34;8.20;99.90
11320;DHT22;5715;48.234;14.320;2023-04-25T17:02:22;8.30;99.90
11320;DHT22;5715;48.234;14.320;2023-04-25T17:05:10;8.40;99.90
11320;DHT22;5715;48.234;14.320;2023-04-25T17:07:58;8.50;99.90
11320;DHT22;5715;48.234;14.320;2023-04-25T17:10:46;8.40;99.90
11320;DHT22;5715;48.234;14.320;2023-04-25T17:13:34;8.40;99.90
11320;DHT22;5715;48.234;14.320;2023-04-25T17:16:21;8.40;99.90
11320;DHT22;5715;48.234;14.320;2023-04-25T17:19:09;8.40;99.90
11320;DHT22;5715;48.234;14.320;2023-04-25T17:21:56;8.40;99.90
11320;DHT22;5715;48.234;14.320;2023-04-25T17:24:44;8.40;99.90
11320;DHT22;5715;48.234;14.320;2023-04-25T17:27:33;8.40;99.90
11320;DHT22;5715;48.234;14.320;2023-04-25T17:30:22;8.40;99.90
11320;DHT22;5715;48.234;14.320;2023-04-25T17:33:09;8.40;99.90
11320;DHT22;5715;48.234;14.320;2023-04-25T17:35:57;8.50;99.90
11320;DHT22;5715;48.234;14.320;2023-04-25T17:38:45;8.50;99.90
11320;DHT22;5715;48.234;14.320;2023-04-25T17:41:33;8.30;99.90
11320;DHT22;5715;48.234;14.320;2023-04-25T17:44:20;8.20;99.90
11320;DHT22;5715;48.234;14.320;2023-04-25T17:47:08;8.10;99.90
11320;DHT22;5715;48.234;14.320;2023-04-25T17:49:58;8.00;99.90
11320;DHT22;5715;48.234;14.320;2023-04-25T17:52:46;8.00;99.90
11320;DHT22;5715;48.234;14.320;2023-04-25T17:55:34;8.00;99.90